Terminal Aerodrome Forecast
Issued by NWS Sterling, VA

Current Version | Previous Version | Text Only | Print | Product List | Glossary On
Versions: 1 2 3 4 5 6 7 8 9 10 11 12 13 14 15
836
FTUS41 KLWX 161139
TAFCHO
TAF
KCHO 161139Z 1612/1712 20004KT P6SM SCT110
     FM161600 22008KT P6SM SCT100
     FM170200 24004KT P6SM SKC=

USA.gov is the U.S. government's official web portal to all federal, state and local government web resources and services.